Dobrodošli na spletni strani vremenske postaje Senovo. Vse informacije so informativnega značaja, saj vremenska postaja ni del državne mreže meteoroloških postaj.

AKTUALNIH OBVESTIL NI.


Posebna pozornost v zvezi z vremenskimi dogajanji ni potrebna.    Posebna pozornost v zvezi z vremenskimi dogajanji ni potrebna.

Pogled proti Armezu več informacij Pogled proti Armezu


Bohor več informacij Bohor


Lisca več informacij Lisca


Radar strel več informacij blitzortung!


Radar padavin več informacij rain snow radar


Obiščite še:

Template documentation
and downloads

And another site



METAR v bližini

   
LJLJ - Ljubljana
Posodobljeno: 21-06-2018 04:30
jasno  
jasno  
   Veter: SZ 1.9 km/h
Veter: SZ 1.9 km/h
Temperatura: 15°C
Točka rosišča: 14°C
Vlažnost: 94%
Zračni tlak: 1019 hPa
Vidljivost: More than 10 km
Podrobnosti o oblakih: jasno
LJLJ 210230Z 31001KT CAVOK 15/14 Q1019 NOSIG
LJCE - Cerklje ob Krki
Posodobljeno: 21-06-2018 04:30
jasno  
jasno  
   Veter: Brezveterje
Veter: Brezveterje
Temperatura: 17°C
Točka rosišča: 16°C
Vlažnost: 94%
Zračni tlak: 1018 hPa
Oblaki: jasno
Vidljivost: More than 10 km
Podrobnosti o oblakih: jasno
LJCE 210230Z AUTO 00000KT 9999 NCD 17/16 Q1018
LJMB - Maribor
Posodobljeno: 21-06-2018 04:30
jasno  
jasno  
   Veter: različen 1.9 km/h
Veter: različen 1.9 km/h
Temperatura: 16°C
Točka rosišča: 15°C
Vlažnost: 94%
Zračni tlak: 1018 hPa
Oblaki: jasno
Vidljivost: 7 km
Podrobnosti o oblakih: jasno
LJMB 210230Z AUTO VRB01KT 7000 NCD 16/15 Q1018
LJPZ - Portorož
Posodobljeno: 21-06-2018 04:30
jasno  
jasno  
   Veter: VJV 9.3 km/h
Veter: VJV 9.3 km/h
Temperatura: 18°C
Točka rosišča: 15°C
Vlažnost: 83%
Zračni tlak: 1016 hPa
Oblaki: jasno
Vidljivost: More than 10 km
Podrobnosti o oblakih: jasno
LJPZ 210230Z AUTO 11005KT 9999 NCD 18/15 Q1016
LDRI - Rijeka, Airport, Croatia
Posodobljeno: 21-06-2018 04:30
jasno  
jasno  
   Veter: JV 7.4 km/h
Veter: JV 7.4 km/h
Temperatura: 21°C
Točka rosišča: 18°C
Vlažnost: 83%
Zračni tlak: 1017 hPa
Vidljivost: More than 10 km
Podrobnosti o oblakih: jasno
LDRI 210230Z 13004KT CAVOK 21/18 Q1017
LOWK - Klagenfurt, Airport, Avstia
Posodobljeno: 21-06-2018 04:20
delno oblačno  
delno oblačno  
   Veter: SZ 7.4 km/h
Veter: SZ 7.4 km/h
Temperatura: 16°C
Točka rosišča: 14°C
Vlažnost: 88%
Zračni tlak: 1019 hPa
Oblaki: delno oblačno
Vidljivost: More than 10 km
Podrobnosti o oblakih: delno oblačno
LOWK 210220Z AUTO 32004KT 9999 NSC 16/14 Q1019

Script developed by  Saratoga-weather.org Adapted for the template by  Weerstation Leuven

Vremenski podatki so objavljeni na:

European Weather Network

WeatherCloud

Weather Underground

AWEKAS

HAMweather, WeatherForYou, PWS Weather

MapView

Geostik

Slovenia weather network

Oprema, ki se uporablja:

Vremenski program
Cumulus

Vremenski server
Asus

Cumulus

Asus